sensor_id;sensor_type;location;lat;lon;timestamp;temperature;humidity
5461;DHT22;2753;49.196;8.286;2023-02-28T00:00:48;1.70;78.00
5461;DHT22;2753;49.196;8.286;2023-02-28T00:03:14;1.60;77.90
5461;DHT22;2753;49.196;8.286;2023-02-28T00:05:39;1.60;77.90
5461;DHT22;2753;49.196;8.286;2023-02-28T00:08:07;1.60;78.30
5461;DHT22;2753;49.196;8.286;2023-02-28T00:10:32;1.50;78.20
5461;DHT22;2753;49.196;8.286;2023-02-28T00:13:04;1.50;78.20
5461;DHT22;2753;49.196;8.286;2023-02-28T00:15:31;1.50;78.40
5461;DHT22;2753;49.196;8.286;2023-02-28T00:17:56;1.50;78.40
5461;DHT22;2753;49.196;8.286;2023-02-28T00:20:23;1.50;78.30
5461;DHT22;2753;49.196;8.286;2023-02-28T00:22:51;1.50;78.40
5461;DHT22;2753;49.196;8.286;2023-02-28T00:25:19;1.40;78.50
5461;DHT22;2753;49.196;8.286;2023-02-28T00:27:47;1.50;78.70
5461;DHT22;2753;49.196;8.286;2023-02-28T00:30:16;1.40;78.70
5461;DHT22;2753;49.196;8.286;2023-02-28T00:32:42;1.40;78.70
5461;DHT22;2753;49.196;8.286;2023-02-28T00:35:08;1.40;78.60
5461;DHT22;2753;49.196;8.286;2023-02-28T00:37:34;1.40;79.00
5461;DHT22;2753;49.196;8.286;2023-02-28T00:40:00;1.40;79.20
5461;DHT22;2753;49.196;8.286;2023-02-28T00:42:26;1.40;79.10
5461;DHT22;2753;49.196;8.286;2023-02-28T00:44:51;1.40;79.60
5461;DHT22;2753;49.196;8.286;2023-02-28T00:47:17;1.30;79.40
5461;DHT22;2753;49.196;8.286;2023-02-28T00:49:43;1.40;79.50
5461;DHT22;2753;49.196;8.286;2023-02-28T00:52:09;1.30;79.40
5461;DHT22;2753;49.196;8.286;2023-02-28T00:54:35;1.30;79.80
5461;DHT22;2753;49.196;8.286;2023-02-28T00:57:00;1.30;79.70
5461;DHT22;2753;49.196;8.286;2023-02-28T00:59:26;1.20;79.90
5461;DHT22;2753;49.196;8.286;2023-02-28T01:01:52;1.20;80.10
5461;DHT22;2753;49.196;8.286;2023-02-28T01:04:17;1.20;80.20
5461;DHT22;2753;49.196;8.286;2023-02-28T01:06:43;1.20;80.30
5461;DHT22;2753;49.196;8.286;2023-02-28T01:09:09;1.20;80.60
5461;DHT22;2753;49.196;8.286;2023-02-28T01:11:35;1.20;80.40
5461;DHT22;2753;49.196;8.286;2023-02-28T01:14:02;1.20;80.70
5461;DHT22;2753;49.196;8.286;2023-02-28T01:16:27;1.10;80.90
5461;DHT22;2753;49.196;8.286;2023-02-28T01:18:53;1.10;80.80
5461;DHT22;2753;49.196;8.286;2023-02-28T01:21:21;1.10;81.10
5461;DHT22;2753;49.196;8.286;2023-02-28T01:23:47;1.10;80.90
5461;DHT22;2753;49.196;8.286;2023-02-28T01:26:22;1.10;81.10
5461;DHT22;2753;49.196;8.286;2023-02-28T01:28:49;1.10;81.10
5461;DHT22;2753;49.196;8.286;2023-02-28T01:31:16;1.10;81.20
5461;DHT22;2753;49.196;8.286;2023-02-28T01:33:42;1.10;81.30
5461;DHT22;2753;49.196;8.286;2023-02-28T01:36:11;1.00;81.50
5461;DHT22;2753;49.196;8.286;2023-02-28T01:38:37;1.10;81.50
5461;DHT22;2753;49.196;8.286;2023-02-28T01:41:04;1.00;81.60
5461;DHT22;2753;49.196;8.286;2023-02-28T01:43:35;1.00;81.60
5461;DHT22;2753;49.196;8.286;2023-02-28T01:46:19;1.00;81.60
5461;DHT22;2753;49.196;8.286;2023-02-28T01:51:29;0.90;82.00
5461;DHT22;2753;49.196;8.286;2023-02-28T01:54:00;0.90;82.20
5461;DHT22;2753;49.196;8.286;2023-02-28T01:56:30;0.90;82.10
5461;DHT22;2753;49.196;8.286;2023-02-28T01:58:57;0.90;82.50
5461;DHT22;2753;49.196;8.286;2023-02-28T02:01:25;0.90;82.60
5461;DHT22;2753;49.196;8.286;2023-02-28T02:03:54;0.80;82.70
5461;DHT22;2753;49.196;8.286;2023-02-28T02:06:44;0.80;82.90
5461;DHT22;2753;49.196;8.286;2023-02-28T02:09:11;0.80;83.00
5461;DHT22;2753;49.196;8.286;2023-02-28T02:11:40;0.80;83.20
5461;DHT22;2753;49.196;8.286;2023-02-28T02:17:35;0.80;83.40
5461;DHT22;2753;49.196;8.286;2023-02-28T02:25:33;0.70;83.80
5461;DHT22;2753;49.196;8.286;2023-02-28T02:44:15;0.60;84.50
5461;DHT22;2753;49.196;8.286;2023-02-28T02:46:45;0.50;84.80
5461;DHT22;2753;49.196;8.286;2023-02-28T02:49:25;0.60;84.70
5461;DHT22;2753;49.196;8.286;2023-02-28T02:51:53;0.50;84.70
5461;DHT22;2753;49.196;8.286;2023-02-28T02:54:30;0.50;85.00
5461;DHT22;2753;49.196;8.286;2023-02-28T02:57:04;0.50;85.20
5461;DHT22;2753;49.196;8.286;2023-02-28T02:59:30;0.50;85.10
5461;DHT22;2753;49.196;8.286;2023-02-28T03:01:59;0.50;86.10
5461;DHT22;2753;49.196;8.286;2023-02-28T03:04:31;0.40;85.40
5461;DHT22;2753;49.196;8.286;2023-02-28T03:06:57;0.50;85.50
5461;DHT22;2753;49.196;8.286;2023-02-28T03:09:25;0.50;85.30
5461;DHT22;2753;49.196;8.286;2023-02-28T03:11:52;0.40;85.20
5461;DHT22;2753;49.196;8.286;2023-02-28T03:33:43;0.30;86.00
5461;DHT22;2753;49.196;8.286;2023-02-28T03:36:14;0.30;86.50
5461;DHT22;2753;49.196;8.286;2023-02-28T03:38:54;0.20;86.50
5461;DHT22;2753;49.196;8.286;2023-02-28T03:41:27;0.20;86.50
5461;DHT22;2753;49.196;8.286;2023-02-28T03:43:58;0.20;86.80
5461;DHT22;2753;49.196;8.286;2023-02-28T03:46:28;0.20;86.90
5461;DHT22;2753;49.196;8.286;2023-02-28T03:49:12;0.20;86.70
5461;DHT22;2753;49.196;8.286;2023-02-28T03:51:41;0.20;86.70
5461;DHT22;2753;49.196;8.286;2023-02-28T03:54:16;0.20;87.20
5461;DHT22;2753;49.196;8.286;2023-02-28T03:59:44;0.10;87.20
5461;DHT22;2753;49.196;8.286;2023-02-28T04:02:12;0.10;87.70
5461;DHT22;2753;49.196;8.286;2023-02-28T04:04:38;0.00;87.80
5461;DHT22;2753;49.196;8.286;2023-02-28T04:07:08;0.00;88.00
5461;DHT22;2753;49.196;8.286;2023-02-28T04:09:36;0.00;87.80
5461;DHT22;2753;49.196;8.286;2023-02-28T04:12:02;0.00;88.20
5461;DHT22;2753;49.196;8.286;2023-02-28T04:14:28;0.10;88.10
5461;DHT22;2753;49.196;8.286;2023-02-28T04:16:53;0.10;87.90
5461;DHT22;2753;49.196;8.286;2023-02-28T04:19:19;0.00;87.90
5461;DHT22;2753;49.196;8.286;2023-02-28T04:21:48;0.00;88.20
5461;DHT22;2753;49.196;8.286;2023-02-28T04:24:17;0.00;89.00
5461;DHT22;2753;49.196;8.286;2023-02-28T04:26:46;0.00;88.50
5461;DHT22;2753;49.196;8.286;2023-02-28T04:29:14;0.00;88.40
5461;DHT22;2753;49.196;8.286;2023-02-28T04:31:40;0.00;88.40
5461;DHT22;2753;49.196;8.286;2023-02-28T04:34:06;0.00;88.60
5461;DHT22;2753;49.196;8.286;2023-02-28T04:36:32;0.00;88.60
5461;DHT22;2753;49.196;8.286;2023-02-28T04:38:57;0.00;88.90
5461;DHT22;2753;49.196;8.286;2023-02-28T04:41:24;-0.10;88.80
5461;DHT22;2753;49.196;8.286;2023-02-28T04:43:51;0.00;89.00
5461;DHT22;2753;49.196;8.286;2023-02-28T04:46:17;0.00;89.20
5461;DHT22;2753;49.196;8.286;2023-02-28T04:48:43;-0.10;88.80
5461;DHT22;2753;49.196;8.286;2023-02-28T04:51:12;0.00;89.00
5461;DHT22;2753;49.196;8.286;2023-02-28T04:53:39;0.00;89.30
5461;DHT22;2753;49.196;8.286;2023-02-28T04:56:05;0.00;89.30
5461;DHT22;2753;49.196;8.286;2023-02-28T04:58:32;0.00;89.60
5461;DHT22;2753;49.196;8.286;2023-02-28T05:01:18;0.00;89.50
5461;DHT22;2753;49.196;8.286;2023-02-28T05:03:44;0.00;89.50
5461;DHT22;2753;49.196;8.286;2023-02-28T05:06:11;0.00;89.80
5461;DHT22;2753;49.196;8.286;2023-02-28T05:08:37;0.00;89.70
5461;DHT22;2753;49.196;8.286;2023-02-28T05:11:04;0.00;90.00
5461;DHT22;2753;49.196;8.286;2023-02-28T05:13:30;-0.50;89.70
5461;DHT22;2753;49.196;8.286;2023-02-28T05:15:55;0.00;89.90
5461;DHT22;2753;49.196;8.286;2023-02-28T05:18:21;0.00;90.20
5461;DHT22;2753;49.196;8.286;2023-02-28T05:20:47;0.00;90.10
5461;DHT22;2753;49.196;8.286;2023-02-28T05:23:14;0.00;90.10
5461;DHT22;2753;49.196;8.286;2023-02-28T05:25:40;0.00;90.10
5461;DHT22;2753;49.196;8.286;2023-02-28T05:28:07;0.00;90.30
5461;DHT22;2753;49.196;8.286;2023-02-28T05:30:33;0.00;90.10
5461;DHT22;2753;49.196;8.286;2023-02-28T05:33:00;0.10;90.20
5461;DHT22;2753;49.196;8.286;2023-02-28T05:35:26;0.00;90.30
5461;DHT22;2753;49.196;8.286;2023-02-28T05:37:51;0.00;90.40
5461;DHT22;2753;49.196;8.286;2023-02-28T05:40:18;0.10;90.30
5461;DHT22;2753;49.196;8.286;2023-02-28T05:42:45;0.10;90.40
5461;DHT22;2753;49.196;8.286;2023-02-28T05:45:11;0.10;90.50
5461;DHT22;2753;49.196;8.286;2023-02-28T05:47:37;0.00;90.40
5461;DHT22;2753;49.196;8.286;2023-02-28T05:50:03;0.00;90.50
5461;DHT22;2753;49.196;8.286;2023-02-28T05:52:29;0.00;90.50
5461;DHT22;2753;49.196;8.286;2023-02-28T05:54:56;0.10;90.50
5461;DHT22;2753;49.196;8.286;2023-02-28T05:57:22;0.10;90.60
5461;DHT22;2753;49.196;8.286;2023-02-28T05:59:48;0.00;90.70
5461;DHT22;2753;49.196;8.286;2023-02-28T06:02:15;0.00;90.80
5461;DHT22;2753;49.196;8.286;2023-02-28T06:04:42;0.00;90.80
5461;DHT22;2753;49.196;8.286;2023-02-28T06:07:08;0.10;90.70
5461;DHT22;2753;49.196;8.286;2023-02-28T06:09:34;0.10;90.70
5461;DHT22;2753;49.196;8.286;2023-02-28T06:12:02;0.10;90.90
5461;DHT22;2753;49.196;8.286;2023-02-28T06:14:31;0.10;90.80
5461;DHT22;2753;49.196;8.286;2023-02-28T06:16:58;0.10;90.70
5461;DHT22;2753;49.196;8.286;2023-02-28T06:19:24;0.10;90.80
5461;DHT22;2753;49.196;8.286;2023-02-28T06:21:53;0.10;90.70
5461;DHT22;2753;49.196;8.286;2023-02-28T06:24:19;0.10;90.70
5461;DHT22;2753;49.196;8.286;2023-02-28T06:26:45;0.10;90.70
5461;DHT22;2753;49.196;8.286;2023-02-28T06:29:11;0.10;90.60
5461;DHT22;2753;49.196;8.286;2023-02-28T06:31:37;0.10;90.80
5461;DHT22;2753;49.196;8.286;2023-02-28T06:34:04;0.10;90.80
5461;DHT22;2753;49.196;8.286;2023-02-28T06:36:30;0.10;90.80
5461;DHT22;2753;49.196;8.286;2023-02-28T06:38:56;0.10;90.70
5461;DHT22;2753;49.196;8.286;2023-02-28T06:41:24;0.10;90.90
5461;DHT22;2753;49.196;8.286;2023-02-28T06:43:50;0.20;90.80
5461;DHT22;2753;49.196;8.286;2023-02-28T06:46:16;0.10;90.60
5461;DHT22;2753;49.196;8.286;2023-02-28T06:48:43;0.10;90.70
5461;DHT22;2753;49.196;8.286;2023-02-28T06:51:12;0.20;90.90
5461;DHT22;2753;49.196;8.286;2023-02-28T06:53:39;0.20;91.00
5461;DHT22;2753;49.196;8.286;2023-02-28T06:56:11;0.20;91.00
5461;DHT22;2753;49.196;8.286;2023-02-28T06:58:37;0.20;90.90
5461;DHT22;2753;49.196;8.286;2023-02-28T07:01:05;0.20;90.90
5461;DHT22;2753;49.196;8.286;2023-02-28T07:03:31;0.20;90.90
5461;DHT22;2753;49.196;8.286;2023-02-28T07:05:57;0.20;91.00
5461;DHT22;2753;49.196;8.286;2023-02-28T07:08:23;0.20;91.00
5461;DHT22;2753;49.196;8.286;2023-02-28T07:10:56;0.20;91.00
5461;DHT22;2753;49.196;8.286;2023-02-28T07:13:22;0.30;91.10
5461;DHT22;2753;49.196;8.286;2023-02-28T07:16:04;0.30;91.00
5461;DHT22;2753;49.196;8.286;2023-02-28T07:18:31;0.30;91.00
5461;DHT22;2753;49.196;8.286;2023-02-28T07:20:57;0.30;91.10
5461;DHT22;2753;49.196;8.286;2023-02-28T07:23:22;0.30;91.00
5461;DHT22;2753;49.196;8.286;2023-02-28T07:25:50;0.30;91.10
5461;DHT22;2753;49.196;8.286;2023-02-28T07:28:16;0.30;91.10
5461;DHT22;2753;49.196;8.286;2023-02-28T07:30:41;0.30;91.00
5461;DHT22;2753;49.196;8.286;2023-02-28T07:33:07;0.40;91.10
5461;DHT22;2753;49.196;8.286;2023-02-28T07:35:33;0.40;91.10
5461;DHT22;2753;49.196;8.286;2023-02-28T07:37:59;0.40;91.10
5461;DHT22;2753;49.196;8.286;2023-02-28T07:40:25;0.40;91.00
5461;DHT22;2753;49.196;8.286;2023-02-28T07:42:51;0.50;91.00
5461;DHT22;2753;49.196;8.286;2023-02-28T07:45:17;0.50;91.00
5461;DHT22;2753;49.196;8.286;2023-02-28T07:47:43;0.50;91.00
5461;DHT22;2753;49.196;8.286;2023-02-28T07:50:11;0.50;90.90
5461;DHT22;2753;49.196;8.286;2023-02-28T07:52:38;0.50;90.80
5461;DHT22;2753;49.196;8.286;2023-02-28T07:55:05;0.60;90.80
5461;DHT22;2753;49.196;8.286;2023-02-28T07:57:31;0.60;90.90
5461;DHT22;2753;49.196;8.286;2023-02-28T07:59:57;0.60;90.90
5461;DHT22;2753;49.196;8.286;2023-02-28T08:02:23;0.70;90.70
5461;DHT22;2753;49.196;8.286;2023-02-28T08:04:49;0.70;90.50
5461;DHT22;2753;49.196;8.286;2023-02-28T08:07:16;0.70;90.30
5461;DHT22;2753;49.196;8.286;2023-02-28T08:09:42;0.70;90.40
5461;DHT22;2753;49.196;8.286;2023-02-28T08:12:09;0.70;90.10
5461;DHT22;2753;49.196;8.286;2023-02-28T08:14:35;0.70;90.10
5461;DHT22;2753;49.196;8.286;2023-02-28T08:17:01;0.80;90.20
5461;DHT22;2753;49.196;8.286;2023-02-28T08:19:27;0.80;90.20
5461;DHT22;2753;49.196;8.286;2023-02-28T08:21:53;0.80;89.90
5461;DHT22;2753;49.196;8.286;2023-02-28T08:24:19;0.80;90.00
5461;DHT22;2753;49.196;8.286;2023-02-28T08:26:44;0.90;90.00
5461;DHT22;2753;49.196;8.286;2023-02-28T08:29:10;0.90;90.00
5461;DHT22;2753;49.196;8.286;2023-02-28T08:31:36;0.90;90.00
5461;DHT22;2753;49.196;8.286;2023-02-28T08:34:06;1.00;90.00
5461;DHT22;2753;49.196;8.286;2023-02-28T08:36:32;1.00;90.00
5461;DHT22;2753;49.196;8.286;2023-02-28T08:38:58;1.10;90.00
5461;DHT22;2753;49.196;8.286;2023-02-28T08:41:25;1.20;89.50
5461;DHT22;2753;49.196;8.286;2023-02-28T08:43:51;1.20;88.90
5461;DHT22;2753;49.196;8.286;2023-02-28T08:46:17;1.40;88.90
5461;DHT22;2753;49.196;8.286;2023-02-28T08:48:43;1.50;88.40
5461;DHT22;2753;49.196;8.286;2023-02-28T08:51:16;1.50;88.40
5461;DHT22;2753;49.196;8.286;2023-02-28T08:53:44;1.60;88.80
5461;DHT22;2753;49.196;8.286;2023-02-28T08:56:16;1.60;88.10
5461;DHT22;2753;49.196;8.286;2023-02-28T08:58:46;1.70;87.40
5461;DHT22;2753;49.196;8.286;2023-02-28T09:01:13;1.80;87.60
5461;DHT22;2753;49.196;8.286;2023-02-28T09:03:39;1.80;87.30
5461;DHT22;2753;49.196;8.286;2023-02-28T09:06:06;1.90;86.80
5461;DHT22;2753;49.196;8.286;2023-02-28T09:08:32;2.00;86.60
5461;DHT22;2753;49.196;8.286;2023-02-28T09:10:58;2.10;86.10
5461;DHT22;2753;49.196;8.286;2023-02-28T09:13:25;2.40;86.10
5461;DHT22;2753;49.196;8.286;2023-02-28T09:15:52;2.60;84.90
5461;DHT22;2753;49.196;8.286;2023-02-28T09:18:18;2.60;84.50
5461;DHT22;2753;49.196;8.286;2023-02-28T09:20:44;2.60;84.40
5461;DHT22;2753;49.196;8.286;2023-02-28T09:23:11;2.70;84.10
5461;DHT22;2753;49.196;8.286;2023-02-28T09:25:37;2.80;83.60
5461;DHT22;2753;49.196;8.286;2023-02-28T09:28:03;2.90;83.90
5461;DHT22;2753;49.196;8.286;2023-02-28T09:30:30;2.90;83.70
5461;DHT22;2753;49.196;8.286;2023-02-28T09:32:56;3.10;83.20
5461;DHT22;2753;49.196;8.286;2023-02-28T09:35:23;3.10;83.00
5461;DHT22;2753;49.196;8.286;2023-02-28T09:37:50;3.10;82.40
5461;DHT22;2753;49.196;8.286;2023-02-28T09:40:20;3.10;83.00
5461;DHT22;2753;49.196;8.286;2023-02-28T09:42:49;3.30;82.10
5461;DHT22;2753;49.196;8.286;2023-02-28T09:45:26;3.30;81.70
5461;DHT22;2753;49.196;8.286;2023-02-28T09:47:57;3.40;81.60
5461;DHT22;2753;49.196;8.286;2023-02-28T09:52:54;3.60;80.80
5461;DHT22;2753;49.196;8.286;2023-02-28T09:55:32;3.70;80.70
5461;DHT22;2753;49.196;8.286;2023-02-28T09:58:00;3.80;80.90
5461;DHT22;2753;49.196;8.286;2023-02-28T10:00:33;3.90;80.10
5461;DHT22;2753;49.196;8.286;2023-02-28T10:03:25;4.10;80.50
5461;DHT22;2753;49.196;8.286;2023-02-28T10:11:20;4.30;79.00
5461;DHT22;2753;49.196;8.286;2023-02-28T10:17:02;4.50;78.60
5461;DHT22;2753;49.196;8.286;2023-02-28T10:19:42;4.60;77.80
5461;DHT22;2753;49.196;8.286;2023-02-28T10:22:29;4.60;77.20
5461;DHT22;2753;49.196;8.286;2023-02-28T10:24:57;4.60;76.90
5461;DHT22;2753;49.196;8.286;2023-02-28T10:27:32;4.60;76.20
5461;DHT22;2753;49.196;8.286;2023-02-28T10:30:01;4.60;76.90
5461;DHT22;2753;49.196;8.286;2023-02-28T10:32:33;4.80;77.90
5461;DHT22;2753;49.196;8.286;2023-02-28T10:35:19;4.80;76.40
5461;DHT22;2753;49.196;8.286;2023-02-28T10:37:57;4.70;76.00
5461;DHT22;2753;49.196;8.286;2023-02-28T10:45:23;5.20;75.60
5461;DHT22;2753;49.196;8.286;2023-02-28T10:47:51;5.00;74.60
5461;DHT22;2753;49.196;8.286;2023-02-28T10:55:36;5.20;75.60
5461;DHT22;2753;49.196;8.286;2023-02-28T10:58:02;5.60;74.70
5461;DHT22;2753;49.196;8.286;2023-02-28T11:00:34;5.80;74.50
5461;DHT22;2753;49.196;8.286;2023-02-28T11:03:00;5.60;72.20
5461;DHT22;2753;49.196;8.286;2023-02-28T11:05:34;5.50;73.10
5461;DHT22;2753;49.196;8.286;2023-02-28T11:08:13;5.80;73.20
5461;DHT22;2753;49.196;8.286;2023-02-28T11:10:45;5.80;72.10
5461;DHT22;2753;49.196;8.286;2023-02-28T11:13:32;5.60;72.20
5461;DHT22;2753;49.196;8.286;2023-02-28T11:16:02;5.70;72.90
5461;DHT22;2753;49.196;8.286;2023-02-28T11:18:38;5.90;72.70
5461;DHT22;2753;49.196;8.286;2023-02-28T11:21:06;6.20;72.60
5461;DHT22;2753;49.196;8.286;2023-02-28T11:23:34;6.30;71.80
5461;DHT22;2753;49.196;8.286;2023-02-28T11:26:03;5.30;70.40
5461;DHT22;2753;49.196;8.286;2023-02-28T11:28:33;6.10;70.70
5461;DHT22;2753;49.196;8.286;2023-02-28T11:33:46;6.20;71.20
5461;DHT22;2753;49.196;8.286;2023-02-28T11:38:45;6.30;71.00
5461;DHT22;2753;49.196;8.286;2023-02-28T11:44:04;6.60;70.40
5461;DHT22;2753;49.196;8.286;2023-02-28T11:46:35;6.50;69.80
5461;DHT22;2753;49.196;8.286;2023-02-28T11:51:50;6.00;69.40
5461;DHT22;2753;49.196;8.286;2023-02-28T11:54:45;5.90;70.00
5461;DHT22;2753;49.196;8.286;2023-02-28T12:10:39;6.30;71.00
5461;DHT22;2753;49.196;8.286;2023-02-28T12:13:24;6.20;70.10
5461;DHT22;2753;49.196;8.286;2023-02-28T12:27:03;5.40;70.80
5461;DHT22;2753;49.196;8.286;2023-02-28T12:35:02;5.50;71.30
5461;DHT22;2753;49.196;8.286;2023-02-28T12:37:37;5.30;71.30
5461;DHT22;2753;49.196;8.286;2023-02-28T12:40:12;5.40;71.90
5461;DHT22;2753;49.196;8.286;2023-02-28T12:42:42;5.40;71.30
5461;DHT22;2753;49.196;8.286;2023-02-28T12:47:45;5.40;70.80
5461;DHT22;2753;49.196;8.286;2023-02-28T12:50:14;5.30;71.50
5461;DHT22;2753;49.196;8.286;2023-02-28T12:52:48;5.50;72.20
5461;DHT22;2753;49.196;8.286;2023-02-28T12:58:42;5.40;70.60
5461;DHT22;2753;49.196;8.286;2023-02-28T13:09:41;5.50;71.80
5461;DHT22;2753;49.196;8.286;2023-02-28T13:12:16;5.50;71.60
5461;DHT22;2753;49.196;8.286;2023-02-28T13:14:42;5.50;71.30
5461;DHT22;2753;49.196;8.286;2023-02-28T13:19:45;5.60;71.20
5461;DHT22;2753;49.196;8.286;2023-02-28T13:22:42;5.90;71.80
5461;DHT22;2753;49.196;8.286;2023-02-28T13:27:47;6.00;70.40
5461;DHT22;2753;49.196;8.286;2023-02-28T13:33:35;5.80;71.60
5461;DHT22;2753;49.196;8.286;2023-02-28T13:38:35;5.60;71.90
5461;DHT22;2753;49.196;8.286;2023-02-28T13:44:14;5.60;71.60
5461;DHT22;2753;49.196;8.286;2023-02-28T13:49:33;5.60;71.60
5461;DHT22;2753;49.196;8.286;2023-02-28T13:55:06;5.60;71.50
5461;DHT22;2753;49.196;8.286;2023-02-28T14:00:44;5.50;72.00
5461;DHT22;2753;49.196;8.286;2023-02-28T14:11:38;5.20;72.10
5461;DHT22;2753;49.196;8.286;2023-02-28T14:14:06;5.40;72.50
5461;DHT22;2753;49.196;8.286;2023-02-28T14:16:46;5.50;72.40
5461;DHT22;2753;49.196;8.286;2023-02-28T14:19:27;5.60;72.50
5461;DHT22;2753;49.196;8.286;2023-02-28T14:25:22;5.60;71.60
5461;DHT22;2753;49.196;8.286;2023-02-28T14:33:22;6.70;70.60
5461;DHT22;2753;49.196;8.286;2023-02-28T14:38:44;6.90;68.80
5461;DHT22;2753;49.196;8.286;2023-02-28T14:41:31;6.60;68.60
5461;DHT22;2753;49.196;8.286;2023-02-28T14:43:59;6.70;69.00
5461;DHT22;2753;49.196;8.286;2023-02-28T14:46:37;6.90;68.80
5461;DHT22;2753;49.196;8.286;2023-02-28T14:49:21;6.80;68.60
5461;DHT22;2753;49.196;8.286;2023-02-28T14:51:49;7.00;69.00
5461;DHT22;2753;49.196;8.286;2023-02-28T14:54:17;7.00;68.00
5461;DHT22;2753;49.196;8.286;2023-02-28T14:56:50;7.10;68.30
5461;DHT22;2753;49.196;8.286;2023-02-28T14:59:31;6.90;67.90
5461;DHT22;2753;49.196;8.286;2023-02-28T15:04:41;7.20;68.20
5461;DHT22;2753;49.196;8.286;2023-02-28T15:07:13;7.30;67.80
5461;DHT22;2753;49.196;8.286;2023-02-28T15:09:39;7.30;67.00
5461;DHT22;2753;49.196;8.286;2023-02-28T15:12:05;7.40;66.80
5461;DHT22;2753;49.196;8.286;2023-02-28T15:14:31;7.10;66.80
5461;DHT22;2753;49.196;8.286;2023-02-28T15:17:02;7.20;67.20
5461;DHT22;2753;49.196;8.286;2023-02-28T15:19:33;7.10;66.60
5461;DHT22;2753;49.196;8.286;2023-02-28T15:22:04;7.20;66.90
5461;DHT22;2753;49.196;8.286;2023-02-28T15:24:43;7.30;66.20
5461;DHT22;2753;49.196;8.286;2023-02-28T15:27:22;7.10;66.60
5461;DHT22;2753;49.196;8.286;2023-02-28T15:30:04;7.10;66.70
5461;DHT22;2753;49.196;8.286;2023-02-28T15:32:31;7.00;66.70
5461;DHT22;2753;49.196;8.286;2023-02-28T15:34:58;6.90;66.60
5461;DHT22;2753;49.196;8.286;2023-02-28T15:40:10;7.00;67.00
5461;DHT22;2753;49.196;8.286;2023-02-28T15:42:37;7.20;67.60
5461;DHT22;2753;49.196;8.286;2023-02-28T15:45:02;7.40;67.20
5461;DHT22;2753;49.196;8.286;2023-02-28T15:47:30;7.60;67.40
5461;DHT22;2753;49.196;8.286;2023-02-28T15:52:39;7.10;67.60
5461;DHT22;2753;49.196;8.286;2023-02-28T15:55:24;7.00;67.80
5461;DHT22;2753;49.196;8.286;2023-02-28T15:57:55;6.80;68.20
5461;DHT22;2753;49.196;8.286;2023-02-28T16:00:24;6.60;68.60
5461;DHT22;2753;49.196;8.286;2023-02-28T16:02:50;6.50;69.20
5461;DHT22;2753;49.196;8.286;2023-02-28T16:05:27;6.70;69.30
5461;DHT22;2753;49.196;8.286;2023-02-28T16:08:14;6.60;69.40
5461;DHT22;2753;49.196;8.286;2023-02-28T16:10:40;6.40;69.50
5461;DHT22;2753;49.196;8.286;2023-02-28T16:13:08;6.40;69.90
5461;DHT22;2753;49.196;8.286;2023-02-28T16:15:38;6.40;69.80
5461;DHT22;2753;49.196;8.286;2023-02-28T16:18:08;6.30;70.20
5461;DHT22;2753;49.196;8.286;2023-02-28T16:20:35;6.20;69.80
5461;DHT22;2753;49.196;8.286;2023-02-28T16:23:01;6.20;70.20
5461;DHT22;2753;49.196;8.286;2023-02-28T16:25:40;6.10;70.90
5461;DHT22;2753;49.196;8.286;2023-02-28T16:28:20;6.10;70.40
5461;DHT22;2753;49.196;8.286;2023-02-28T16:30:46;6.00;70.60
5461;DHT22;2753;49.196;8.286;2023-02-28T16:33:12;6.00;71.00
5461;DHT22;2753;49.196;8.286;2023-02-28T16:35:38;5.80;71.00
5461;DHT22;2753;49.196;8.286;2023-02-28T16:38:03;5.80;71.40
5461;DHT22;2753;49.196;8.286;2023-02-28T16:40:34;5.70;71.70
5461;DHT22;2753;49.196;8.286;2023-02-28T16:43:00;5.70;71.90
5461;DHT22;2753;49.196;8.286;2023-02-28T16:45:29;5.70;72.00
5461;DHT22;2753;49.196;8.286;2023-02-28T16:47:55;5.60;72.20
5461;DHT22;2753;49.196;8.286;2023-02-28T16:50:22;5.50;72.20
5461;DHT22;2753;49.196;8.286;2023-02-28T16:52:47;5.40;72.20
5461;DHT22;2753;49.196;8.286;2023-02-28T16:55:14;5.40;72.30
5461;DHT22;2753;49.196;8.286;2023-02-28T17:00:53;5.30;72.30
5461;DHT22;2753;49.196;8.286;2023-02-28T17:03:27;5.20;72.60
5461;DHT22;2753;49.196;8.286;2023-02-28T17:05:53;5.20;72.80
5461;DHT22;2753;49.196;8.286;2023-02-28T17:08:19;5.20;73.10
5461;DHT22;2753;49.196;8.286;2023-02-28T17:10:45;5.20;73.10
5461;DHT22;2753;49.196;8.286;2023-02-28T17:13:10;5.20;73.10
5461;DHT22;2753;49.196;8.286;2023-02-28T17:15:37;5.20;73.20
5461;DHT22;2753;49.196;8.286;2023-02-28T17:18:03;5.20;73.20
5461;DHT22;2753;49.196;8.286;2023-02-28T17:20:29;5.10;73.20
5461;DHT22;2753;49.196;8.286;2023-02-28T17:22:55;5.00;73.20
5461;DHT22;2753;49.196;8.286;2023-02-28T17:25:22;4.90;73.20
5461;DHT22;2753;49.196;8.286;2023-02-28T17:27:48;5.00;73.40
5461;DHT22;2753;49.196;8.286;2023-02-28T17:32:40;4.90;73.40
5461;DHT22;2753;49.196;8.286;2023-02-28T17:35:07;4.90;73.60
5461;DHT22;2753;49.196;8.286;2023-02-28T17:37:32;4.90;73.70
5461;DHT22;2753;49.196;8.286;2023-02-28T17:39:58;4.80;73.80
5461;DHT22;2753;49.196;8.286;2023-02-28T17:42:24;4.80;74.00
5461;DHT22;2753;49.196;8.286;2023-02-28T17:44:49;4.70;74.10
5461;DHT22;2753;49.196;8.286;2023-02-28T17:47:15;4.70;74.50
5461;DHT22;2753;49.196;8.286;2023-02-28T17:49:40;4.50;74.50
5461;DHT22;2753;49.196;8.286;2023-02-28T17:52:07;4.60;74.60
5461;DHT22;2753;49.196;8.286;2023-02-28T17:54:33;4.60;74.60
5461;DHT22;2753;49.196;8.286;2023-02-28T17:56:58;4.60;74.60
5461;DHT22;2753;49.196;8.286;2023-02-28T17:59:24;4.60;74.50
5461;DHT22;2753;49.196;8.286;2023-02-28T18:01:50;4.50;75.40
5461;DHT22;2753;49.196;8.286;2023-02-28T18:04:15;4.50;74.80
5461;DHT22;2753;49.196;8.286;2023-02-28T18:06:43;4.40;74.80
5461;DHT22;2753;49.196;8.286;2023-02-28T18:09:14;4.40;74.80
5461;DHT22;2753;49.196;8.286;2023-02-28T18:11:40;4.40;74.80
5461;DHT22;2753;49.196;8.286;2023-02-28T18:14:13;4.40;74.90
5461;DHT22;2753;49.196;8.286;2023-02-28T18:16:41;4.30;75.00
5461;DHT22;2753;49.196;8.286;2023-02-28T18:19:06;4.30;75.10
5461;DHT22;2753;49.196;8.286;2023-02-28T18:21:34;4.30;75.10
5461;DHT22;2753;49.196;8.286;2023-02-28T18:24:00;4.30;75.10
5461;DHT22;2753;49.196;8.286;2023-02-28T18:26:26;4.20;75.30
5461;DHT22;2753;49.196;8.286;2023-02-28T18:28:51;4.20;75.10
5461;DHT22;2753;49.196;8.286;2023-02-28T18:31:19;4.20;75.40
5461;DHT22;2753;49.196;8.286;2023-02-28T18:33:48;4.20;75.40
5461;DHT22;2753;49.196;8.286;2023-02-28T18:36:14;4.10;75.60
5461;DHT22;2753;49.196;8.286;2023-02-28T18:38:40;4.10;75.60
5461;DHT22;2753;49.196;8.286;2023-02-28T18:41:08;4.10;75.70
5461;DHT22;2753;49.196;8.286;2023-02-28T18:43:35;4.10;75.70
5461;DHT22;2753;49.196;8.286;2023-02-28T18:46:04;4.00;75.70
5461;DHT22;2753;49.196;8.286;2023-02-28T18:48:30;4.00;75.80
5461;DHT22;2753;49.196;8.286;2023-02-28T18:50:55;4.00;75.70
5461;DHT22;2753;49.196;8.286;2023-02-28T18:53:21;4.00;75.80
5461;DHT22;2753;49.196;8.286;2023-02-28T18:55:48;3.90;75.80
5461;DHT22;2753;49.196;8.286;2023-02-28T18:58:13;3.90;75.80
5461;DHT22;2753;49.196;8.286;2023-02-28T19:00:39;3.90;75.90
5461;DHT22;2753;49.196;8.286;2023-02-28T19:03:05;3.80;75.90
5461;DHT22;2753;49.196;8.286;2023-02-28T19:05:31;3.80;75.90
5461;DHT22;2753;49.196;8.286;2023-02-28T19:08:00;3.80;76.00
5461;DHT22;2753;49.196;8.286;2023-02-28T19:10:26;3.80;76.00
5461;DHT22;2753;49.196;8.286;2023-02-28T19:12:52;3.80;76.00
5461;DHT22;2753;49.196;8.286;2023-02-28T19:15:17;3.70;76.00
5461;DHT22;2753;49.196;8.286;2023-02-28T19:17:43;3.70;76.10
5461;DHT22;2753;49.196;8.286;2023-02-28T19:20:11;3.70;76.20
5461;DHT22;2753;49.196;8.286;2023-02-28T19:22:40;3.70;76.20
5461;DHT22;2753;49.196;8.286;2023-02-28T19:25:06;3.70;76.30
5461;DHT22;2753;49.196;8.286;2023-02-28T19:27:32;3.70;76.20
5461;DHT22;2753;49.196;8.286;2023-02-28T19:29:58;3.70;76.10